sensor_id;sensor_type;location;lat;lon;timestamp;P1;durP1;ratioP1;P2;durP2;ratioP2
39176;SDS011;24904;52.208;21.192;2023-05-15T00:03:00;7.40;;;3.60;;
39176;SDS011;24904;52.208;21.192;2023-05-15T00:08:03;8.80;;;4.10;;
39176;SDS011;24904;52.208;21.192;2023-05-15T00:13:07;4.80;;;3.00;;
39176;SDS011;24904;52.208;21.192;2023-05-15T00:18:10;5.70;;;3.60;;
39176;SDS011;24904;52.208;21.192;2023-05-15T00:23:13;9.20;;;3.40;;
39176;SDS011;24904;52.208;21.192;2023-05-15T00:28:16;7.50;;;3.70;;
39176;SDS011;24904;52.208;21.192;2023-05-15T00:33:19;7.30;;;3.40;;
39176;SDS011;24904;52.208;21.192;2023-05-15T00:38:22;6.40;;;3.30;;
39176;SDS011;24904;52.208;21.192;2023-05-15T00:43:25;9.50;;;3.20;;
39176;SDS011;24904;52.208;21.192;2023-05-15T00:48:30;4.90;;;3.10;;
39176;SDS011;24904;52.208;21.192;2023-05-15T00:53:33;6.80;;;3.40;;
39176;SDS011;24904;52.208;21.192;2023-05-15T00:58:37;8.50;;;3.80;;
39176;SDS011;24904;52.208;21.192;2023-05-15T01:03:42;9.30;;;3.10;;
39176;SDS011;24904;52.208;21.192;2023-05-15T01:08:45;9.20;;;3.30;;
39176;SDS011;24904;52.208;21.192;2023-05-15T01:13:50;6.80;;;3.60;;
39176;SDS011;24904;52.208;21.192;2023-05-15T01:18:52;6.70;;;3.60;;
39176;SDS011;24904;52.208;21.192;2023-05-15T01:24:03;6.90;;;3.60;;
39176;SDS011;24904;52.208;21.192;2023-05-15T01:29:21;5.30;;;3.50;;
39176;SDS011;24904;52.208;21.192;2023-05-15T01:34:28;7.80;;;3.70;;
39176;SDS011;24904;52.208;21.192;2023-05-15T01:39:36;4.50;;;2.80;;
39176;SDS011;24904;52.208;21.192;2023-05-15T01:44:43;5.20;;;3.40;;
39176;SDS011;24904;52.208;21.192;2023-05-15T01:54:56;4.80;;;2.60;;
39176;SDS011;24904;52.208;21.192;2023-05-15T02:00:01;7.00;;;3.00;;
39176;SDS011;24904;52.208;21.192;2023-05-15T02:05:14;5.40;;;3.50;;
39176;SDS011;24904;52.208;21.192;2023-05-15T02:10:20;8.10;;;3.30;;
39176;SDS011;24904;52.208;21.192;2023-05-15T02:15:24;4.30;;;3.00;;
39176;SDS011;24904;52.208;21.192;2023-05-15T02:20:29;8.10;;;3.40;;
39176;SDS011;24904;52.208;21.192;2023-05-15T02:25:36;10.40;;;3.60;;
39176;SDS011;24904;52.208;21.192;2023-05-15T02:30:47;6.30;;;3.50;;
39176;SDS011;24904;52.208;21.192;2023-05-15T02:36:00;8.20;;;3.50;;
39176;SDS011;24904;52.208;21.192;2023-05-15T02:41:06;7.40;;;3.50;;
39176;SDS011;24904;52.208;21.192;2023-05-15T02:46:10;5.50;;;3.10;;
39176;SDS011;24904;52.208;21.192;2023-05-15T02:51:15;7.10;;;2.60;;
39176;SDS011;24904;52.208;21.192;2023-05-15T02:56:18;9.00;;;3.20;;
39176;SDS011;24904;52.208;21.192;2023-05-15T03:01:21;9.10;;;3.20;;
39176;SDS011;24904;52.208;21.192;2023-05-15T03:06:24;5.30;;;3.40;;
39176;SDS011;24904;52.208;21.192;2023-05-15T03:11:27;4.60;;;2.50;;
39176;SDS011;24904;52.208;21.192;2023-05-15T03:16:30;4.40;;;2.90;;
39176;SDS011;24904;52.208;21.192;2023-05-15T03:21:33;6.10;;;3.00;;
39176;SDS011;24904;52.208;21.192;2023-05-15T03:26:36;4.10;;;3.10;;
39176;SDS011;24904;52.208;21.192;2023-05-15T03:38:55;11.70;;;3.30;;
39176;SDS011;24904;52.208;21.192;2023-05-15T03:43:58;6.60;;;3.80;;
39176;SDS011;24904;52.208;21.192;2023-05-15T03:49:01;5.30;;;3.60;;
39176;SDS011;24904;52.208;21.192;2023-05-15T03:54:04;7.50;;;4.50;;
39176;SDS011;24904;52.208;21.192;2023-05-15T03:59:07;5.80;;;4.40;;
39176;SDS011;24904;52.208;21.192;2023-05-15T04:04:11;8.50;;;4.20;;
39176;SDS011;24904;52.208;21.192;2023-05-15T04:09:14;10.50;;;4.60;;
39176;SDS011;24904;52.208;21.192;2023-05-15T04:14:17;8.80;;;3.60;;
39176;SDS011;24904;52.208;21.192;2023-05-15T04:19:20;5.30;;;3.40;;
39176;SDS011;24904;52.208;21.192;2023-05-15T04:24:23;5.90;;;3.60;;
39176;SDS011;24904;52.208;21.192;2023-05-15T04:29:26;8.70;;;3.10;;
39176;SDS011;24904;52.208;21.192;2023-05-15T04:34:29;7.30;;;3.10;;
39176;SDS011;24904;52.208;21.192;2023-05-15T04:39:32;5.40;;;2.80;;
39176;SDS011;24904;52.208;21.192;2023-05-15T04:44:35;5.80;;;3.20;;
39176;SDS011;24904;52.208;21.192;2023-05-15T04:49:38;7.40;;;3.20;;
39176;SDS011;24904;52.208;21.192;2023-05-15T04:54:41;5.50;;;2.70;;
39176;SDS011;24904;52.208;21.192;2023-05-15T05:00:23;6.90;;;2.90;;
39176;SDS011;24904;52.208;21.192;2023-05-15T05:05:26;6.30;;;2.50;;
39176;SDS011;24904;52.208;21.192;2023-05-15T05:10:29;9.00;;;3.20;;
39176;SDS011;24904;52.208;21.192;2023-05-15T05:15:32;6.00;;;2.90;;
39176;SDS011;24904;52.208;21.192;2023-05-15T05:20:35;6.30;;;3.10;;
39176;SDS011;24904;52.208;21.192;2023-05-15T05:25:38;9.80;;;3.40;;
39176;SDS011;24904;52.208;21.192;2023-05-15T05:30:44;8.70;;;3.20;;
39176;SDS011;24904;52.208;21.192;2023-05-15T05:35:47;4.90;;;3.10;;
39176;SDS011;24904;52.208;21.192;2023-05-15T05:40:50;7.40;;;3.00;;
39176;SDS011;24904;52.208;21.192;2023-05-15T05:45:53;7.10;;;3.30;;
39176;SDS011;24904;52.208;21.192;2023-05-15T05:50:56;6.30;;;3.30;;
39176;SDS011;24904;52.208;21.192;2023-05-15T05:55:59;7.40;;;3.10;;
39176;SDS011;24904;52.208;21.192;2023-05-15T06:01:02;8.30;;;2.90;;
39176;SDS011;24904;52.208;21.192;2023-05-15T06:06:05;5.80;;;3.00;;
39176;SDS011;24904;52.208;21.192;2023-05-15T06:11:08;4.50;;;3.20;;
39176;SDS011;24904;52.208;21.192;2023-05-15T06:16:12;6.60;;;3.00;;
39176;SDS011;24904;52.208;21.192;2023-05-15T06:21:15;8.90;;;3.40;;
39176;SDS011;24904;52.208;21.192;2023-05-15T06:26:18;3.70;;;2.70;;
39176;SDS011;24904;52.208;21.192;2023-05-15T06:31:22;5.00;;;3.00;;
39176;SDS011;24904;52.208;21.192;2023-05-15T06:36:25;9.30;;;3.40;;
39176;SDS011;24904;52.208;21.192;2023-05-15T06:41:28;10.40;;;3.50;;
39176;SDS011;24904;52.208;21.192;2023-05-15T06:46:31;5.20;;;3.20;;
39176;SDS011;24904;52.208;21.192;2023-05-15T06:51:34;6.50;;;3.70;;
39176;SDS011;24904;52.208;21.192;2023-05-15T06:56:37;9.00;;;3.70;;
39176;SDS011;24904;52.208;21.192;2023-05-15T07:01:41;10.20;;;4.00;;
39176;SDS011;24904;52.208;21.192;2023-05-15T07:06:44;9.40;;;5.10;;
39176;SDS011;24904;52.208;21.192;2023-05-15T07:11:47;7.60;;;4.40;;
39176;SDS011;24904;52.208;21.192;2023-05-15T07:16:50;7.10;;;5.10;;
39176;SDS011;24904;52.208;21.192;2023-05-15T07:21:53;5.30;;;4.70;;
39176;SDS011;24904;52.208;21.192;2023-05-15T07:26:57;11.00;;;5.60;;
39176;SDS011;24904;52.208;21.192;2023-05-15T07:32:00;9.70;;;5.50;;
39176;SDS011;24904;52.208;21.192;2023-05-15T07:37:03;7.50;;;4.80;;
39176;SDS011;24904;52.208;21.192;2023-05-15T07:42:07;10.60;;;5.00;;
39176;SDS011;24904;52.208;21.192;2023-05-15T07:47:10;10.40;;;6.10;;
39176;SDS011;24904;52.208;21.192;2023-05-15T07:52:13;10.70;;;6.10;;
39176;SDS011;24904;52.208;21.192;2023-05-15T07:57:16;9.80;;;5.70;;
39176;SDS011;24904;52.208;21.192;2023-05-15T08:02:19;11.00;;;6.40;;
39176;SDS011;24904;52.208;21.192;2023-05-15T08:07:22;10.20;;;5.80;;
39176;SDS011;24904;52.208;21.192;2023-05-15T08:12:25;12.40;;;5.50;;
39176;SDS011;24904;52.208;21.192;2023-05-15T08:17:28;7.60;;;5.70;;
39176;SDS011;24904;52.208;21.192;2023-05-15T08:22:31;8.80;;;6.50;;
39176;SDS011;24904;52.208;21.192;2023-05-15T08:27:34;14.30;;;5.60;;
39176;SDS011;24904;52.208;21.192;2023-05-15T08:32:37;10.70;;;5.70;;
39176;SDS011;24904;52.208;21.192;2023-05-15T08:37:42;10.90;;;5.70;;
39176;SDS011;24904;52.208;21.192;2023-05-15T08:42:46;10.70;;;6.00;;
39176;SDS011;24904;52.208;21.192;2023-05-15T08:54:33;10.50;;;6.60;;
39176;SDS011;24904;52.208;21.192;2023-05-15T08:59:36;9.30;;;5.90;;
39176;SDS011;24904;52.208;21.192;2023-05-15T09:04:40;10.00;;;6.30;;
39176;SDS011;24904;52.208;21.192;2023-05-15T09:09:43;9.30;;;5.80;;
39176;SDS011;24904;52.208;21.192;2023-05-15T09:14:46;8.60;;;5.60;;
39176;SDS011;24904;52.208;21.192;2023-05-15T09:19:49;9.90;;;5.70;;
39176;SDS011;24904;52.208;21.192;2023-05-15T09:24:52;10.00;;;6.10;;
39176;SDS011;24904;52.208;21.192;2023-05-15T09:30:07;9.50;;;6.40;;
39176;SDS011;24904;52.208;21.192;2023-05-15T09:40:35;10.80;;;6.60;;
39176;SDS011;24904;52.208;21.192;2023-05-15T09:45:39;8.20;;;6.90;;
39176;SDS011;24904;52.208;21.192;2023-05-15T09:50:43;7.00;;;5.90;;
39176;SDS011;24904;52.208;21.192;2023-05-15T09:55:47;11.50;;;7.20;;
39176;SDS011;24904;52.208;21.192;2023-05-15T10:00:51;8.30;;;7.00;;
39176;SDS011;24904;52.208;21.192;2023-05-15T10:05:58;8.90;;;6.70;;
39176;SDS011;24904;52.208;21.192;2023-05-15T10:11:04;10.80;;;6.80;;
39176;SDS011;24904;52.208;21.192;2023-05-15T10:16:08;9.50;;;6.30;;
39176;SDS011;24904;52.208;21.192;2023-05-15T10:21:12;11.40;;;6.80;;
39176;SDS011;24904;52.208;21.192;2023-05-15T10:26:19;7.60;;;6.50;;
39176;SDS011;24904;52.208;21.192;2023-05-15T10:31:27;8.50;;;6.40;;
39176;SDS011;24904;52.208;21.192;2023-05-15T10:36:31;10.40;;;6.20;;
39176;SDS011;24904;52.208;21.192;2023-05-15T10:41:36;10.10;;;7.00;;
39176;SDS011;24904;52.208;21.192;2023-05-15T10:46:40;11.70;;;7.60;;
39176;SDS011;24904;52.208;21.192;2023-05-15T10:51:44;9.50;;;7.00;;
39176;SDS011;24904;52.208;21.192;2023-05-15T10:56:47;11.10;;;6.90;;
39176;SDS011;24904;52.208;21.192;2023-05-15T11:01:50;10.50;;;7.40;;
39176;SDS011;24904;52.208;21.192;2023-05-15T11:12:13;10.50;;;8.20;;
39176;SDS011;24904;52.208;21.192;2023-05-15T11:17:16;10.20;;;7.00;;
39176;SDS011;24904;52.208;21.192;2023-05-15T11:22:21;10.70;;;7.80;;
39176;SDS011;24904;52.208;21.192;2023-05-15T11:27:29;8.30;;;7.50;;
39176;SDS011;24904;52.208;21.192;2023-05-15T11:32:39;12.40;;;6.60;;
39176;SDS011;24904;52.208;21.192;2023-05-15T11:37:45;10.30;;;7.30;;
39176;SDS011;24904;52.208;21.192;2023-05-15T11:43:02;12.70;;;6.70;;
39176;SDS011;24904;52.208;21.192;2023-05-15T11:48:08;9.10;;;6.70;;
39176;SDS011;24904;52.208;21.192;2023-05-15T12:01:26;9.30;;;6.40;;
39176;SDS011;24904;52.208;21.192;2023-05-15T12:06:39;11.30;;;7.70;;
39176;SDS011;24904;52.208;21.192;2023-05-15T12:11:47;9.30;;;6.50;;
39176;SDS011;24904;52.208;21.192;2023-05-15T12:21:53;8.50;;;6.60;;
39176;SDS011;24904;52.208;21.192;2023-05-15T12:26:56;9.40;;;7.60;;
39176;SDS011;24904;52.208;21.192;2023-05-15T12:32:00;9.90;;;7.40;;
39176;SDS011;24904;52.208;21.192;2023-05-15T12:37:03;8.10;;;6.50;;
39176;SDS011;24904;52.208;21.192;2023-05-15T12:42:07;13.40;;;7.40;;
39176;SDS011;24904;52.208;21.192;2023-05-15T12:47:12;9.50;;;6.30;;
39176;SDS011;24904;52.208;21.192;2023-05-15T12:52:16;13.70;;;6.60;;
39176;SDS011;24904;52.208;21.192;2023-05-15T12:57:19;8.70;;;6.30;;
39176;SDS011;24904;52.208;21.192;2023-05-15T13:02:22;7.80;;;6.10;;
39176;SDS011;24904;52.208;21.192;2023-05-15T13:07:25;7.30;;;6.60;;
39176;SDS011;24904;52.208;21.192;2023-05-15T13:12:34;7.10;;;5.60;;
39176;SDS011;24904;52.208;21.192;2023-05-15T13:17:38;7.00;;;6.20;;
39176;SDS011;24904;52.208;21.192;2023-05-15T13:22:42;8.70;;;6.60;;
39176;SDS011;24904;52.208;21.192;2023-05-15T13:27:45;8.60;;;6.10;;
39176;SDS011;24904;52.208;21.192;2023-05-15T13:32:50;13.50;;;7.30;;
39176;SDS011;24904;52.208;21.192;2023-05-15T13:37:53;8.60;;;6.40;;
39176;SDS011;24904;52.208;21.192;2023-05-15T13:42:57;8.90;;;6.50;;
39176;SDS011;24904;52.208;21.192;2023-05-15T13:48:00;10.10;;;7.10;;
39176;SDS011;24904;52.208;21.192;2023-05-15T13:53:04;8.90;;;6.90;;
39176;SDS011;24904;52.208;21.192;2023-05-15T13:58:07;10.30;;;7.50;;
39176;SDS011;24904;52.208;21.192;2023-05-15T14:03:11;8.90;;;6.80;;
39176;SDS011;24904;52.208;21.192;2023-05-15T14:08:14;11.20;;;8.00;;
39176;SDS011;24904;52.208;21.192;2023-05-15T14:17:41;9.50;;;7.90;;
39176;SDS011;24904;52.208;21.192;2023-05-15T14:22:48;14.20;;;9.40;;
39176;SDS011;24904;52.208;21.192;2023-05-15T14:27:51;14.20;;;8.70;;
39176;SDS011;24904;52.208;21.192;2023-05-15T14:32:54;11.20;;;8.50;;
39176;SDS011;24904;52.208;21.192;2023-05-15T14:37:57;12.00;;;8.50;;
39176;SDS011;24904;52.208;21.192;2023-05-15T14:43:00;13.10;;;9.20;;
39176;SDS011;24904;52.208;21.192;2023-05-15T14:48:03;10.30;;;9.00;;
39176;SDS011;24904;52.208;21.192;2023-05-15T14:53:07;10.20;;;8.90;;
39176;SDS011;24904;52.208;21.192;2023-05-15T14:58:10;11.00;;;8.90;;
39176;SDS011;24904;52.208;21.192;2023-05-15T15:03:13;13.20;;;10.70;;
39176;SDS011;24904;52.208;21.192;2023-05-15T15:08:16;18.10;;;10.00;;
39176;SDS011;24904;52.208;21.192;2023-05-15T15:13:20;12.80;;;9.80;;
39176;SDS011;24904;52.208;21.192;2023-05-15T15:18:24;16.20;;;10.60;;
39176;SDS011;24904;52.208;21.192;2023-05-15T15:23:27;17.00;;;11.60;;
39176;SDS011;24904;52.208;21.192;2023-05-15T15:28:30;14.00;;;10.80;;
39176;SDS011;24904;52.208;21.192;2023-05-15T15:33:34;15.10;;;12.50;;
39176;SDS011;24904;52.208;21.192;2023-05-15T15:38:37;17.20;;;11.40;;
39176;SDS011;24904;52.208;21.192;2023-05-15T15:43:43;15.30;;;11.20;;
39176;SDS011;24904;52.208;21.192;2023-05-15T15:48:46;14.40;;;11.20;;
39176;SDS011;24904;52.208;21.192;2023-05-15T15:53:50;13.60;;;12.10;;
39176;SDS011;24904;52.208;21.192;2023-05-15T15:58:53;15.40;;;11.90;;
39176;SDS011;24904;52.208;21.192;2023-05-15T16:03:56;17.90;;;11.90;;
39176;SDS011;24904;52.208;21.192;2023-05-15T16:08:59;17.80;;;11.90;;
39176;SDS011;24904;52.208;21.192;2023-05-15T16:14:02;17.70;;;11.50;;
39176;SDS011;24904;52.208;21.192;2023-05-15T16:19:05;18.00;;;10.40;;
39176;SDS011;24904;52.208;21.192;2023-05-15T16:24:08;16.60;;;11.40;;
39176;SDS011;24904;52.208;21.192;2023-05-15T16:29:11;14.20;;;10.30;;
39176;SDS011;24904;52.208;21.192;2023-05-15T16:34:15;12.30;;;10.00;;
39176;SDS011;24904;52.208;21.192;2023-05-15T16:39:18;13.50;;;9.30;;
39176;SDS011;24904;52.208;21.192;2023-05-15T16:44:21;12.80;;;9.40;;
39176;SDS011;24904;52.208;21.192;2023-05-15T16:49:24;12.40;;;8.90;;
39176;SDS011;24904;52.208;21.192;2023-05-15T16:54:27;16.50;;;9.30;;
39176;SDS011;24904;52.208;21.192;2023-05-15T16:59:30;14.00;;;10.00;;
39176;SDS011;24904;52.208;21.192;2023-05-15T17:04:33;11.40;;;10.20;;
39176;SDS011;24904;52.208;21.192;2023-05-15T17:09:37;16.20;;;10.70;;
39176;SDS011;24904;52.208;21.192;2023-05-15T17:14:43;17.20;;;10.20;;
39176;SDS011;24904;52.208;21.192;2023-05-15T17:19:46;12.60;;;10.10;;
39176;SDS011;24904;52.208;21.192;2023-05-15T17:24:49;15.00;;;10.30;;
39176;SDS011;24904;52.208;21.192;2023-05-15T17:29:52;15.50;;;10.20;;
39176;SDS011;24904;52.208;21.192;2023-05-15T17:34:55;11.30;;;9.80;;
39176;SDS011;24904;52.208;21.192;2023-05-15T17:39:58;10.80;;;9.50;;
39176;SDS011;24904;52.208;21.192;2023-05-15T17:45:02;11.70;;;10.40;;
39176;SDS011;24904;52.208;21.192;2023-05-15T17:50:07;11.50;;;9.50;;
39176;SDS011;24904;52.208;21.192;2023-05-15T17:55:11;14.40;;;10.70;;
39176;SDS011;24904;52.208;21.192;2023-05-15T18:00:15;12.30;;;9.30;;
39176;SDS011;24904;52.208;21.192;2023-05-15T18:05:19;11.60;;;9.70;;
39176;SDS011;24904;52.208;21.192;2023-05-15T18:10:23;13.30;;;9.30;;
39176;SDS011;24904;52.208;21.192;2023-05-15T18:15:26;12.40;;;9.60;;
39176;SDS011;24904;52.208;21.192;2023-05-15T18:20:31;13.40;;;9.00;;
39176;SDS011;24904;52.208;21.192;2023-05-15T18:25:34;11.40;;;9.60;;
39176;SDS011;24904;52.208;21.192;2023-05-15T18:30:38;14.30;;;8.80;;
39176;SDS011;24904;52.208;21.192;2023-05-15T18:35:41;14.30;;;8.80;;
39176;SDS011;24904;52.208;21.192;2023-05-15T18:40:45;12.50;;;8.10;;
39176;SDS011;24904;52.208;21.192;2023-05-15T18:45:48;11.80;;;9.00;;
39176;SDS011;24904;52.208;21.192;2023-05-15T18:50:52;12.10;;;7.80;;
39176;SDS011;24904;52.208;21.192;2023-05-15T18:55:55;11.40;;;8.10;;
39176;SDS011;24904;52.208;21.192;2023-05-15T19:00:58;12.70;;;8.80;;
39176;SDS011;24904;52.208;21.192;2023-05-15T19:06:01;15.70;;;9.30;;
39176;SDS011;24904;52.208;21.192;2023-05-15T19:11:05;11.40;;;9.40;;
39176;SDS011;24904;52.208;21.192;2023-05-15T19:16:08;12.10;;;8.80;;
39176;SDS011;24904;52.208;21.192;2023-05-15T19:21:12;12.10;;;8.70;;
39176;SDS011;24904;52.208;21.192;2023-05-15T19:26:15;13.80;;;9.90;;
39176;SDS011;24904;52.208;21.192;2023-05-15T19:31:18;12.10;;;10.20;;
39176;SDS011;24904;52.208;21.192;2023-05-15T19:36:21;11.80;;;9.40;;
39176;SDS011;24904;52.208;21.192;2023-05-15T19:41:25;13.20;;;9.70;;
39176;SDS011;24904;52.208;21.192;2023-05-15T19:46:28;14.80;;;9.70;;
39176;SDS011;24904;52.208;21.192;2023-05-15T19:51:31;14.60;;;9.60;;
39176;SDS011;24904;52.208;21.192;2023-05-15T19:56:35;13.30;;;10.70;;
39176;SDS011;24904;52.208;21.192;2023-05-15T20:01:38;15.60;;;9.00;;
39176;SDS011;24904;52.208;21.192;2023-05-15T20:06:41;12.40;;;9.00;;
39176;SDS011;24904;52.208;21.192;2023-05-15T20:11:44;11.80;;;8.90;;
39176;SDS011;24904;52.208;21.192;2023-05-15T20:16:47;15.10;;;8.10;;
39176;SDS011;24904;52.208;21.192;2023-05-15T20:21:50;12.00;;;8.80;;
39176;SDS011;24904;52.208;21.192;2023-05-15T20:26:53;10.60;;;8.40;;
39176;SDS011;24904;52.208;21.192;2023-05-15T20:31:56;16.10;;;9.10;;
39176;SDS011;24904;52.208;21.192;2023-05-15T20:37:00;12.00;;;9.20;;
39176;SDS011;24904;52.208;21.192;2023-05-15T20:42:03;13.40;;;9.30;;
39176;SDS011;24904;52.208;21.192;2023-05-15T20:47:06;13.80;;;9.40;;
39176;SDS011;24904;52.208;21.192;2023-05-15T20:52:10;15.40;;;9.70;;
39176;SDS011;24904;52.208;21.192;2023-05-15T20:57:13;14.20;;;10.30;;
39176;SDS011;24904;52.208;21.192;2023-05-15T21:02:16;16.60;;;10.90;;
39176;SDS011;24904;52.208;21.192;2023-05-15T21:07:19;13.80;;;10.60;;
39176;SDS011;24904;52.208;21.192;2023-05-15T21:12:22;13.20;;;10.30;;
39176;SDS011;24904;52.208;21.192;2023-05-15T21:17:25;15.10;;;9.60;;
39176;SDS011;24904;52.208;21.192;2023-05-15T21:22:28;14.20;;;9.20;;
39176;SDS011;24904;52.208;21.192;2023-05-15T21:27:31;9.60;;;7.90;;
39176;SDS011;24904;52.208;21.192;2023-05-15T21:32:34;11.30;;;7.90;;
39176;SDS011;24904;52.208;21.192;2023-05-15T21:37:37;10.30;;;7.20;;
39176;SDS011;24904;52.208;21.192;2023-05-15T21:42:40;12.10;;;6.10;;
39176;SDS011;24904;52.208;21.192;2023-05-15T21:47:43;7.80;;;5.80;;
39176;SDS011;24904;52.208;21.192;2023-05-15T21:52:46;13.40;;;6.20;;
39176;SDS011;24904;52.208;21.192;2023-05-15T21:57:51;9.40;;;5.90;;
39176;SDS011;24904;52.208;21.192;2023-05-15T22:02:54;9.50;;;5.10;;
39176;SDS011;24904;52.208;21.192;2023-05-15T22:07:57;7.20;;;5.00;;
39176;SDS011;24904;52.208;21.192;2023-05-15T22:13:00;7.10;;;4.60;;
39176;SDS011;24904;52.208;21.192;2023-05-15T22:18:03;7.80;;;4.50;;
39176;SDS011;24904;52.208;21.192;2023-05-15T22:23:07;7.20;;;4.70;;
39176;SDS011;24904;52.208;21.192;2023-05-15T22:28:10;9.30;;;4.80;;
39176;SDS011;24904;52.208;21.192;2023-05-15T22:33:13;7.00;;;5.00;;
39176;SDS011;24904;52.208;21.192;2023-05-15T22:38:16;8.70;;;5.00;;
39176;SDS011;24904;52.208;21.192;2023-05-15T22:43:19;7.50;;;5.10;;
39176;SDS011;24904;52.208;21.192;2023-05-15T22:48:22;6.80;;;4.50;;
39176;SDS011;24904;52.208;21.192;2023-05-15T22:53:25;5.70;;;4.50;;
39176;SDS011;24904;52.208;21.192;2023-05-15T22:58:28;6.40;;;4.10;;
39176;SDS011;24904;52.208;21.192;2023-05-15T23:03:31;5.90;;;4.20;;
39176;SDS011;24904;52.208;21.192;2023-05-15T23:08:34;6.40;;;4.40;;
39176;SDS011;24904;52.208;21.192;2023-05-15T23:13:37;7.40;;;4.10;;
39176;SDS011;24904;52.208;21.192;2023-05-15T23:18:40;6.30;;;4.20;;
39176;SDS011;24904;52.208;21.192;2023-05-15T23:23:43;5.70;;;4.20;;
39176;SDS011;24904;52.208;21.192;2023-05-15T23:28:48;5.20;;;4.00;;
39176;SDS011;24904;52.208;21.192;2023-05-15T23:33:51;6.10;;;4.30;;
39176;SDS011;24904;52.208;21.192;2023-05-15T23:38:54;5.80;;;3.70;;
39176;SDS011;24904;52.208;21.192;2023-05-15T23:43:57;6.70;;;3.80;;
39176;SDS011;24904;52.208;21.192;2023-05-15T23:49:00;8.20;;;4.00;;
39176;SDS011;24904;52.208;21.192;2023-05-15T23:54:03;5.20;;;4.10;;
39176;SDS011;24904;52.208;21.192;2023-05-15T23:59:07;6.70;;;4.70;;
